Time;durP1;ratioP1;P1;durP2;ratioP2;P2;SDS_P1;SDS_P2;PMS_P1;PMS_P2;Temp;Humidity;BMP_temperature;BMP_pressure;BME280_temperature;BME280_humidity;BME280_pressure;Samples;Min_cycle;Max_cycle;Signal;HPM_P1;HPM_P2
2022/06/01 00:01:50;;;;;;;;;1.00;1.00;;;;;21.45;33.38;101058.16;4977903;28;45254;-47
2022/06/01 00:04:16;;;;;;;;;3.50;2.00;;;;;21.44;33.46;101059.13;4979391;28;45327;-47
2022/06/01 00:06:42;;;;;;;;;2.50;2.00;;;;;21.44;33.74;101065.22;4979583;28;45548;-45
2022/06/01 00:09:07;;;;;;;;;2.00;2.00;;;;;21.44;33.35;101059.13;4979340;28;46989;-50
2022/06/01 00:11:33;;;;;;;;;1.00;1.00;;;;;21.43;33.71;101058.25;4979348;28;45312;-45
2022/06/01 00:13:58;;;;;;;;;3.00;2.00;;;;;21.43;33.53;101058.25;4979217;28;45245;-47
2022/06/01 00:16:24;;;;;;;;;1.00;1.00;;;;;21.44;33.34;101069.69;4979875;28;45274;-49
2022/06/01 00:18:49;;;;;;;;;1.75;1.75;;;;;21.43;33.56;101073.25;4978975;28;46307;-56
2022/06/01 00:21:15;;;;;;;;;1.00;1.00;;;;;21.42;33.32;101067.09;4979123;28;45441;-51
2022/06/01 00:23:40;;;;;;;;;1.00;1.00;;;;;21.41;33.53;101065.41;4979084;28;45311;-50
2022/06/01 00:26:05;;;;;;;;;1.50;1.25;;;;;21.41;33.42;101065.41;4979314;28;45424;-50
2022/06/01 00:28:32;;;;;;;;;3.50;2.25;;;;;21.42;33.66;101067.09;4979032;28;45702;-48
2022/06/01 00:30:57;;;;;;;;;1.00;1.00;;;;;21.42;33.67;101068.91;4979195;28;45780;-49
2022/06/01 00:33:23;;;;;;;;;1.00;1.00;;;;;21.42;33.45;101074.19;4978991;28;45475;-46
2022/06/01 00:35:49;;;;;;;;;1.50;1.50;;;;;21.41;33.35;101070.66;4994362;28;45811;-49
2022/06/01 00:38:16;;;;;;;;;2.00;1.50;;;;;21.42;33.49;101074.19;4978819;28;45349;-48
2022/06/01 00:40:42;;;;;;;;;1.25;1.25;;;;;21.41;33.26;101072.47;4978872;28;45222;-47
2022/06/01 00:43:26;;;;;;;;;2.00;2.00;;;;;21.41;33.92;101065.41;4978831;28;45333;-46
2022/06/01 00:45:52;;;;;;;;;2.00;2.00;;;;;21.40;33.43;101061.06;4979004;28;45434;-47
2022/06/01 00:48:24;;;;;;;;;1.25;1.25;;;;;21.38;33.53;101065.59;4978323;28;46385;-46
2022/06/01 00:50:50;;;;;;;;;1.25;1.25;;;;;21.40;34.04;101063.69;4978688;28;45809;-45
2022/06/01 00:53:22;;;;;;;;;1.75;1.75;;;;;21.38;33.96;101059.44;4978711;28;45483;-45
2022/06/01 00:55:57;;;;;;;;;1.00;1.00;;;;;21.39;33.68;101069.06;4978784;28;45391;-45
2022/06/01 00:58:27;;;;;;;;;2.00;2.00;;;;;21.40;33.49;101068.13;4978453;28;46231;-43
2022/06/01 01:00:55;;;;;;;;;2.00;2.00;;;;;21.39;33.43;101066.44;4978494;28;45755;-44
2022/06/01 01:03:25;;;;;;;;;1.00;1.00;;;;;21.39;33.71;101069.91;4978593;28;45435;-51
2022/06/01 01:06:25;;;;;;;;;1.00;1.00;;;;;21.39;33.60;101066.44;4978593;28;45613;-47
2022/06/01 01:08:51;;;;;;;;;2.00;2.00;;;;;21.38;33.61;101065.59;4978296;28;45391;-50
2022/06/01 01:11:21;;;;;;;;;1.00;1.00;;;;;21.38;33.87;101068.22;4977942;28;45923;-46
2022/06/01 01:13:50;;;;;;;;;2.00;2.00;;;;;21.38;33.66;101064.72;4978227;28;45437;-47
2022/06/01 01:16:17;;;;;;;;;2.00;2.00;;;;;21.38;33.73;101059.44;4978508;28;45504;-47
2022/06/01 01:18:44;;;;;;;;;1.00;1.00;;;;;21.37;34.08;101061.25;4978082;28;45972;-47
2022/06/01 01:21:46;;;;;;;;;1.00;1.00;;;;;21.38;33.79;101064.72;4978151;28;45360;-50
2022/06/01 01:24:41;;;;;;;;;1.00;1.00;;;;;21.37;33.87;101063.88;4974613;28;45367;-48
2022/06/01 01:27:07;;;;;;;;;1.75;1.00;;;;;21.36;33.45;101054.28;4978634;28;45411;-47
2022/06/01 01:29:39;;;;;;;;;1.00;1.00;;;;;21.36;33.74;101059.53;4978008;28;46159;-50
2022/06/01 01:32:07;;;;;;;;;3.00;1.25;;;;;21.36;33.59;101056.03;4993246;28;45844;-49
2022/06/01 01:34:37;;;;;;;;;2.00;2.00;;;;;21.36;33.85;101066.59;4978097;28;45519;-47
2022/06/01 01:37:07;;;;;;;;;1.50;1.00;;;;;21.36;33.79;101064.81;4978351;28;45246;-45
2022/06/01 01:39:35;;;;;;;;;2.00;2.00;;;;;21.35;33.66;101062.25;4977698;28;46216;-48
2022/06/01 01:42:01;;;;;;;;;1.75;1.75;;;;;21.35;33.71;101057.84;4978306;28;45735;-47
2022/06/01 01:44:33;;;;;;;;;2.00;2.00;;;;;21.36;33.75;101061.31;4977932;28;45561;-48
2022/06/01 01:46:59;;;;;;;;;1.00;1.00;;;;;21.35;33.69;101068.38;4978208;28;45325;-46
2022/06/01 01:49:30;;;;;;;;;1.75;1.75;;;;;21.35;33.70;101062.25;4977680;28;45344;-48
2022/06/01 01:52:00;;;;;;;;;2.00;1.00;;;;;21.34;33.72;101068.44;4977575;28;45400;-44
2022/06/01 01:54:49;;;;;;;;;2.00;2.00;;;;;21.34;33.82;101058.78;4976412;28;45209;-46
2022/06/01 01:57:19;;;;;;;;;1.00;1.00;;;;;21.34;34.08;101058.78;4978001;28;45519;-48
2022/06/01 02:00:04;;;;;;;;;2.00;2.00;;;;;21.34;33.89;101055.28;4992691;28;47225;-47
2022/06/01 02:02:40;;;;;;;;;2.00;2.00;;;;;21.34;33.62;101055.28;4977755;28;45237;-46
2022/06/01 02:08:28;;;;;;;;;2.00;2.00;;;;;21.34;33.70;101042.97;4977678;28;45333;-45
2022/06/01 02:13:50;;;;;;;;;1.00;1.00;;;;;21.31;33.97;101033.44;4977368;28;45748;-49
2022/06/01 02:16:15;;;;;;;;;1.00;1.00;;;;;21.33;33.79;101035.16;4992695;28;45277;-51
2022/06/01 02:18:47;;;;;;;;;2.00;2.00;;;;;21.33;34.23;101040.41;4977598;28;45649;-49
2022/06/01 02:21:18;;;;;;;;;3.00;2.00;;;;;21.31;33.95;101033.44;4977216;28;45459;-46
2022/06/01 02:23:44;;;;;;;;;2.00;2.00;;;;;21.33;34.00;101035.16;4975693;28;45408;-50
2022/06/01 02:26:10;;;;;;;;;2.50;0.50;;;;;21.32;33.67;101036.91;4977497;28;45843;-48
2022/06/01 02:28:40;;;;;;;;;1.25;1.25;;;;;21.32;33.95;101031.63;4977424;28;45468;-47
2022/06/01 02:31:07;;;;;;;;;1.25;1.25;;;;;21.31;34.09;101028.16;4992230;28;46137;-48
2022/06/01 02:33:35;;;;;;;;;2.50;2.00;;;;;21.33;34.11;101029.88;4977430;28;45809;-47
2022/06/01 02:36:03;;;;;;;;;1.00;1.00;;;;;21.33;33.98;101037.78;4977338;28;45338;-48
2022/06/01 02:38:49;;;;;;;;;2.50;2.00;;;;;21.31;33.96;101030.81;4977441;28;45534;-51
2022/06/01 02:44:00;;;;;;;;;1.00;1.00;;;;;21.31;34.06;101022.91;4977029;28;45790;-49
2022/06/01 02:46:25;;;;;;;;;1.00;1.00;;;;;21.31;34.09;101027.31;4976930;28;45436;-46
2022/06/01 02:48:51;;;;;;;;;1.00;1.00;;;;;21.32;33.99;101031.63;4977381;28;45377;-44
2022/06/01 02:51:21;;;;;;;;;1.00;1.00;;;;;21.31;34.00;101029.94;4976971;28;45377;-43
2022/06/01 02:53:46;;;;;;;;;1.75;1.75;;;;;21.30;34.13;101021.19;4977073;28;46002;-45
2022/06/01 02:56:13;;;;;;;;;1.75;1.75;;;;;21.30;34.24;101021.19;4977012;28;45317;-47
2022/06/01 02:58:38;;;;;;;;;1.00;1.00;;;;;21.30;34.18;101017.69;4977054;28;45411;-49
2022/06/01 03:01:04;;;;;;;;;1.50;1.50;;;;;21.30;33.78;101021.19;4976880;28;46081;-49
2022/06/01 03:03:30;;;;;;;;;1.75;1.75;;;;;21.30;34.00;101023.81;4976722;28;45315;-45
2022/06/01 03:05:56;;;;;;;;;2.50;2.00;;;;;21.30;34.10;101013.28;4976826;28;45488;-48
2022/06/01 03:08:21;;;;;;;;;1.00;1.00;;;;;21.30;34.37;101008.00;4976968;28;45567;-46
2022/06/01 03:10:48;;;;;;;;;1.00;1.00;;;;;21.30;33.97;101017.69;4976576;28;45332;-47
2022/06/01 03:13:13;;;;;;;;;1.00;1.00;;;;;21.29;34.29;101019.50;4976693;28;45219;-46
2022/06/01 03:15:39;;;;;;;;;1.75;1.75;;;;;21.29;34.34;101022.13;4976727;28;45877;-49
2022/06/01 03:18:04;;;;;;;;;2.00;2.00;;;;;21.29;34.39;101029.16;4977169;28;45481;-48
2022/06/01 03:20:31;;;;;;;;;1.50;1.50;;;;;21.29;34.14;101029.16;4976540;28;46006;-44
2022/06/01 03:22:58;;;;;;;;;1.00;1.00;;;;;21.29;34.11;101034.44;4976514;28;45264;-45
2022/06/01 03:25:24;;;;;;;;;1.00;1.00;;;;;21.29;34.36;101032.66;4976721;28;45491;-45
2022/06/01 03:27:51;;;;;;;;;3.50;2.00;;;;;21.28;34.12;101030.09;4976590;28;45591;-47
2022/06/01 03:30:18;;;;;;;;;2.00;2.00;;;;;21.28;33.86;101030.97;4976377;28;46352;-48
2022/06/01 03:32:45;;;;;;;;;1.00;1.00;;;;;21.29;34.30;101034.44;4976423;28;45728;-45
2022/06/01 03:35:13;;;;;;;;;2.00;2.00;;;;;21.28;34.53;101033.59;4977525;28;45338;-48
2022/06/01 03:37:38;;;;;;;;;2.50;2.00;;;;;21.29;34.26;101037.06;4980270;28;45431;-46
2022/06/01 03:40:05;;;;;;;;;1.00;1.00;;;;;21.29;34.52;101035.31;4979840;28;45290;-45
2022/06/01 03:42:31;;;;;;;;;1.00;1.00;;;;;21.27;34.06;101037.16;4979720;28;45848;-47
2022/06/01 03:47:41;;;;;;;;;2.00;1.75;;;;;21.27;34.28;101042.44;4979823;28;45241;-46
2022/06/01 03:50:08;;;;;;;;;2.00;2.00;;;;;21.27;34.25;101047.72;4979898;28;45218;-46
2022/06/01 03:52:34;;;;;;;;;2.00;0.00;;;;;21.29;34.38;101044.97;4979442;28;45828;-49
2022/06/01 03:54:59;;;;;;;;;2.00;2.00;;;;;21.28;34.19;101043.28;4979680;28;45359;-49
2022/06/01 03:57:24;;;;;;;;;1.50;1.50;;;;;21.27;34.54;101045.06;4979730;28;45446;-47
2022/06/01 03:59:50;;;;;;;;;3.00;2.00;;;;;21.27;34.45;101053.00;4979616;28;45492;-48
2022/06/01 04:02:15;;;;;;;;;2.00;2.00;;;;;21.28;34.39;101054.69;4979512;28;45391;-48
2022/06/01 04:04:40;;;;;;;;;3.00;1.00;;;;;21.27;34.32;101055.63;4994486;28;45316;-46
2022/06/01 04:07:06;;;;;;;;;1.00;1.00;;;;;21.27;34.34;101053.00;4979973;28;45600;-48
2022/06/01 04:09:31;;;;;;;;;2.75;1.25;;;;;21.27;34.14;101060.06;4979145;28;45387;-44
2022/06/01 04:11:57;;;;;;;;;1.25;1.25;;;;;21.27;34.45;101057.41;4979227;28;45394;-47
2022/06/01 04:14:24;;;;;;;;;2.00;2.00;;;;;21.27;34.35;101053.00;4979408;28;45390;-44
2022/06/01 04:16:49;;;;;;;;;1.75;1.75;;;;;21.27;34.63;101054.78;4979601;28;45207;-47
2022/06/01 04:19:15;;;;;;;;;3.00;1.00;;;;;21.27;34.27;101046.88;4978964;28;46218;-46
2022/06/01 04:21:44;;;;;;;;;3.50;1.50;;;;;21.26;34.40;101061.81;4979944;28;45249;-48
2022/06/01 04:24:16;;;;;;;;;1.00;1.00;;;;;21.26;34.45;101051.28;4979408;28;45409;-49
2022/06/01 04:26:42;;;;;;;;;1.50;1.50;;;;;21.27;34.30;101063.53;4979639;28;45527;-49
2022/06/01 04:29:07;;;;;;;;;2.50;1.00;;;;;21.27;33.88;101068.81;4979125;28;45230;-47
2022/06/01 04:31:34;;;;;;;;;2.00;2.00;;;;;21.26;34.35;101069.72;4979005;28;45318;-48
2022/06/01 04:34:00;;;;;;;;;2.50;2.00;;;;;21.25;34.85;101073.31;4979007;28;45413;-47
2022/06/01 04:36:25;;;;;;;;;2.00;2.00;;;;;21.24;34.29;101074.22;4979341;28;45606;-50
2022/06/01 04:38:51;;;;;;;;;2.25;1.25;;;;;21.25;34.77;101075.94;4978598;28;45316;-50
2022/06/01 04:41:17;;;;;;;;;1.00;1.00;;;;;21.26;34.52;101079.44;4978722;28;45348;-52
2022/06/01 04:43:42;;;;;;;;;1.25;1.25;;;;;21.26;34.67;101082.06;4979149;28;45407;-47
2022/06/01 04:46:08;;;;;;;;;2.25;2.25;;;;;21.26;34.41;101088.19;4978734;28;45407;-49
2022/06/01 04:48:33;;;;;;;;;1.00;1.00;;;;;21.26;34.71;101088.19;4977986;28;46081;-50
2022/06/01 04:50:58;;;;;;;;;1.00;1.00;;;;;21.26;34.58;101082.06;4978611;28;45302;-50
2022/06/01 04:53:24;;;;;;;;;1.00;1.00;;;;;21.26;34.21;101093.47;4978669;28;45682;-48
2022/06/01 04:55:50;;;;;;;;;1.00;1.00;;;;;21.26;34.64;101088.19;4978988;28;45697;-48
2022/06/01 04:58:15;;;;;;;;;2.00;2.00;;;;;21.25;34.90;101097.03;4978547;28;47391;-50
2022/06/01 05:00:42;;;;;;;;;1.00;1.00;;;;;21.26;34.42;101093.47;4978771;28;45273;-46
2022/06/01 05:03:08;;;;;;;;;2.50;2.50;;;;;21.26;34.41;101098.72;4978642;28;45346;-47
2022/06/01 05:05:39;;;;;;;;;2.00;2.00;;;;;21.26;34.73;101101.38;4978574;28;46022;-50
2022/06/01 05:08:05;;;;;;;;;1.00;1.00;;;;;21.26;34.53;101098.72;4978104;28;46745;-46
2022/06/01 05:10:31;;;;;;;;;2.00;2.00;;;;;21.27;34.58;101105.72;4993372;28;45771;-50
2022/06/01 05:12:57;;;;;;;;;1.25;1.25;;;;;21.27;34.86;101105.72;4978416;28;45207;-50
2022/06/01 05:15:22;;;;;;;;;2.75;1.25;;;;;21.27;34.79;101110.97;4978519;28;45380;-47
2022/06/01 05:17:47;;;;;;;;;3.00;3.00;;;;;21.28;34.92;101120.59;4978103;28;46176;-47
2022/06/01 05:20:13;;;;;;;;;2.00;2.00;;;;;21.27;34.58;101110.97;4978464;28;45231;-51
2022/06/01 05:22:40;;;;;;;;;3.00;2.50;;;;;21.28;34.98;101103.91;4993433;28;45396;-46
2022/06/01 05:25:06;;;;;;;;;2.00;2.00;;;;;21.27;35.06;101105.72;4978269;28;45412;-46
2022/06/01 05:27:32;;;;;;;;;2.00;1.25;;;;;21.30;34.89;101104.69;4978029;28;46260;-51
2022/06/01 05:29:57;;;;;;;;;2.00;2.00;;;;;21.29;35.05;101109.13;4976881;28;45871;-52
2022/06/01 05:32:23;;;;;;;;;4.00;4.00;;;;;21.29;35.29;101106.47;4978280;28;45511;-50
2022/06/01 05:34:48;;;;;;;;;5.75;5.25;;;;;21.30;35.16;101109.97;4978400;28;45471;-48
2022/06/01 05:37:14;;;;;;;;;14.00;12.75;;;;;21.31;35.14;101112.53;4978320;28;45431;-48
2022/06/01 05:39:39;;;;;;;;;12.75;12.75;;;;;21.31;35.27;101107.25;4978046;28;45328;-47
2022/06/01 05:42:05;;;;;;;;;18.00;17.75;;;;;21.31;35.61;101114.31;4978132;28;45255;-47
2022/06/01 05:44:30;;;;;;;;;18.00;14.75;;;;;21.31;35.30;101107.25;4977933;28;45590;-47
2022/06/01 05:46:58;;;;;;;;;14.25;14.00;;;;;21.30;35.63;101094.13;4977705;28;46554;-51
2022/06/01 05:49:24;;;;;;;;;14.25;13.00;;;;;21.33;35.67;101103.69;4977886;28;45823;-47
2022/06/01 05:51:49;;;;;;;;;15.75;13.00;;;;;21.34;35.56;101103.59;4977989;28;45329;-54
2022/06/01 05:54:14;;;;;;;;;14.00;12.25;;;;;21.35;35.46;101104.44;4978122;28;45690;-50
2022/06/01 05:56:40;;;;;;;;;11.25;11.00;;;;;21.35;35.41;101104.44;4976402;28;46953;-49
2022/06/01 05:59:05;;;;;;;;;11.00;11.00;;;;;21.35;35.20;101100.03;4977257;28;45385;-52
2022/06/01 06:01:31;;;;;;;;;12.75;11.50;;;;;21.35;35.52;101107.94;4977705;28;45404;-46
2022/06/01 06:03:57;;;;;;;;;11.75;11.50;;;;;21.35;35.59;101104.44;4978025;28;45471;-49
2022/06/01 06:06:23;;;;;;;;;11.25;10.00;;;;;21.36;35.21;101108.78;4977424;28;45433;-49
2022/06/01 06:08:51;;;;;;;;;11.25;10.50;;;;;21.36;35.18;101101.72;4977602;28;45446;-46
2022/06/01 06:11:17;;;;;;;;;7.75;7.75;;;;;21.37;35.66;101107.84;4978007;28;45285;-47
2022/06/01 06:13:43;;;;;;;;;11.25;10.00;;;;;21.37;35.20;101110.47;4978158;28;45281;-49
2022/06/01 06:16:09;;;;;;;;;10.00;9.00;;;;;21.36;35.57;101107.00;4977431;28;46701;-51
2022/06/01 06:18:35;;;;;;;;;11.25;11.25;;;;;21.37;35.80;101107.84;4976211;28;45611;-46
2022/06/01 06:21:01;;;;;;;;;7.00;7.00;;;;;21.39;35.18;101105.97;4977641;28;45351;-49
2022/06/01 06:23:27;;;;;;;;;9.25;9.00;;;;;21.38;35.78;101105.13;4977600;28;45461;-47
2022/06/01 06:25:52;;;;;;;;;8.50;8.25;;;;;21.38;35.54;101104.28;4977374;28;46289;-46
2022/06/01 06:28:19;;;;;;;;;8.25;6.75;;;;;21.39;35.52;101111.25;4977590;28;45329;-43
2022/06/01 06:30:45;;;;;;;;;8.00;8.00;;;;;21.39;35.36;101106.81;4976677;28;45385;-47
2022/06/01 06:33:10;;;;;;;;;8.50;6.25;;;;;21.38;35.52;101099.88;4977444;28;45571;-47
2022/06/01 06:35:36;;;;;;;;;8.50;8.00;;;;;21.40;35.77;101107.69;4977172;28;46323;-49
2022/06/01 06:38:03;;;;;;;;;8.50;5.75;;;;;21.41;35.50;101106.75;4977259;28;45310;-49
2022/06/01 06:40:28;;;;;;;;;10.75;8.00;;;;;21.41;35.70;101109.38;4977369;28;45333;-48
2022/06/01 06:42:53;;;;;;;;;7.00;7.00;;;;;21.41;35.46;101112.03;4977355;28;45716;-50
2022/06/01 06:45:22;;;;;;;;;5.25;5.25;;;;;21.42;35.50;101114.56;4976992;28;45221;-48
2022/06/01 06:47:48;;;;;;;;;4.50;4.50;;;;;21.44;35.73;101125.03;4977143;28;45389;-48
2022/06/01 06:50:16;;;;;;;;;5.50;5.50;;;;;21.44;35.47;101125.03;4977642;28;45344;-48
2022/06/01 06:52:42;;;;;;;;;10.00;7.00;;;;;21.43;35.60;101116.28;4977328;28;45376;-43
2022/06/01 06:55:08;;;;;;;;;6.25;6.25;;;;;21.44;35.76;101127.69;4976888;28;45357;-47
2022/06/01 06:57:34;;;;;;;;;5.75;4.75;;;;;21.45;35.69;101126.72;4976937;28;45440;-48
2022/06/01 07:00:00;;;;;;;;;6.00;6.00;;;;;21.46;35.24;101125.78;4975829;28;45397;-46
2022/06/01 07:02:26;;;;;;;;;7.75;4.50;;;;;21.47;35.48;101127.50;4977009;28;45305;-47
2022/06/01 07:04:51;;;;;;;;;4.00;4.00;;;;;21.47;35.81;101130.13;4976753;28;45381;-47
2022/06/01 07:07:17;;;;;;;;;4.25;4.25;;;;;21.48;35.92;101123.94;4977182;28;45421;-46
2022/06/01 07:09:43;;;;;;;;;3.75;3.75;;;;;21.49;35.52;101119.53;4977159;28;45434;-45
2022/06/01 07:12:10;;;;;;;;;5.50;5.00;;;;;21.49;35.14;101128.28;4980545;28;45599;-44
2022/06/01 07:14:36;;;;;;;;;4.00;4.00;;;;;21.51;35.55;101138.72;4980236;28;46203;-49
2022/06/01 07:17:02;;;;;;;;;3.00;3.00;;;;;21.49;35.80;101133.53;4978863;28;45455;-47
2022/06/01 07:19:28;;;;;;;;;5.00;5.00;;;;;21.50;35.28;101126.50;4980249;28;45301;-46
2022/06/01 07:21:54;;;;;;;;;5.25;4.25;;;;;21.51;35.25;101133.44;4980377;28;45361;-46
2022/06/01 07:24:20;;;;;;;;;5.50;3.00;;;;;21.52;35.24;101130.75;4980169;28;45343;-47
2022/06/01 07:26:46;;;;;;;;;4.00;4.00;;;;;21.53;35.96;101127.19;4979984;28;45950;-47
2022/06/01 07:29:14;;;;;;;;;4.00;4.00;;;;;21.55;35.71;101135.00;4980153;28;45451;-52
2022/06/01 07:31:40;;;;;;;;;3.00;3.00;;;;;21.55;35.45;101127.06;4978875;28;45551;-49
2022/06/01 07:34:05;;;;;;;;;3.00;3.00;;;;;21.57;35.78;101133.13;4979938;28;45922;-47
2022/06/01 07:36:32;;;;;;;;;3.00;3.00;;;;;21.58;35.65;101138.31;4979974;28;45790;-49
2022/06/01 07:44:49;;;;;;;;;5.25;5.00;;;;;21.67;35.70;101137.00;4979520;28;45651;-47
2022/06/01 07:47:16;;;;;;;;;4.25;4.00;;;;;21.68;35.95;101137.81;4979603;28;45858;-46
2022/06/01 07:49:42;;;;;;;;;3.75;3.75;;;;;21.70;35.79;101143.88;4979925;28;45348;-47
2022/06/01 07:52:09;;;;;;;;;4.00;4.00;;;;;21.71;35.78;101137.66;4980039;28;45506;-47
2022/06/01 07:54:36;;;;;;;;;3.00;3.00;;;;;21.72;35.78;101136.72;4979526;28;46033;-47
2022/06/01 07:57:02;;;;;;;;;2.75;2.75;;;;;21.75;36.02;101139.22;4979633;28;45339;-46
2022/06/01 07:59:27;;;;;;;;;4.00;4.00;;;;;21.76;36.00;101140.91;4979947;28;45290;-46
2022/06/01 08:01:52;;;;;;;;;5.75;4.00;;;;;21.77;35.89;101134.69;4980135;28;45777;-49
2022/06/01 08:04:18;;;;;;;;;3.75;3.75;;;;;21.78;36.18;101133.72;4994662;28;47631;-44
2022/06/01 08:06:43;;;;;;;;;5.00;4.00;;;;;21.80;35.93;101144.22;4979353;28;45377;-46
2022/06/01 08:09:08;;;;;;;;;3.75;3.75;;;;;21.81;36.04;101143.28;4979496;28;45429;-45
2022/06/01 08:14:19;;;;;;;;;3.00;3.00;;;;;21.79;35.89;101130.16;4979582;28;45951;-45
2022/06/01 08:16:45;;;;;;;;;4.00;4.00;;;;;21.82;35.97;101132.63;4994541;28;46316;-43
2022/06/01 08:19:11;;;;;;;;;3.25;3.25;;;;;21.83;36.22;101136.97;4979456;28;45396;-45
2022/06/01 08:21:37;;;;;;;;;3.00;3.00;;;;;21.84;35.95;101138.69;4979407;28;45570;-44
2022/06/01 08:24:05;;;;;;;;;3.00;3.00;;;;;21.85;36.10;101145.66;4979156;28;46269;-46
2022/06/01 08:26:31;;;;;;;;;3.00;3.00;;;;;21.85;35.86;101140.38;4979151;28;45443;-42
2022/06/01 08:28:56;;;;;;;;;3.00;3.00;;;;;21.86;36.05;101139.47;4979343;28;45457;-48
2022/06/01 08:31:26;;;;;;;;;4.50;4.00;;;;;21.85;35.90;101135.13;4979755;28;45519;-44
2022/06/01 08:33:53;;;;;;;;;2.00;2.00;;;;;21.84;35.99;101138.69;4979426;28;47282;-48
2022/06/01 08:36:18;;;;;;;;;3.00;3.00;;;;;21.83;35.51;101134.34;4979014;28;45907;-47
2022/06/01 08:38:43;;;;;;;;;3.75;2.25;;;;;21.82;35.80;101132.63;4979219;28;45340;-45
2022/06/01 08:41:12;;;;;;;;;3.00;3.00;;;;;21.83;35.91;101139.63;4979134;28;45593;-46
2022/06/01 08:43:50;;;;;;;;;4.00;3.00;;;;;21.84;35.77;101128.13;4978826;28;46439;-46
2022/06/01 08:46:17;;;;;;;;;3.00;3.00;;;;;21.85;35.97;101132.47;4978518;28;45368;-45
2022/06/01 08:48:49;;;;;;;;;3.50;3.50;;;;;21.86;35.76;101131.53;4979058;28;45385;-45
2022/06/01 08:51:19;;;;;;;;;3.00;3.00;;;;;21.87;36.09;101135.88;4979176;28;45175;-48
2022/06/01 08:53:45;;;;;;;;;2.50;2.50;;;;;21.88;35.96;101132.28;4978604;28;46161;-51
2022/06/01 08:56:18;;;;;;;;;3.00;3.00;;;;;21.90;35.96;101138.31;4978737;28;45778;-53
2022/06/01 08:59:25;;;;;;;;;0.25;0.25;;;;;21.91;36.04;101134.75;4978858;28;45468;-48
2022/06/01 09:01:57;;;;;;;;;3.25;2.50;;;;;21.92;35.81;101131.19;4975257;28;45609;-48
2022/06/01 09:04:29;;;;;;;;;2.25;2.25;;;;;21.94;36.25;101133.72;4978758;28;45441;-50
2022/06/01 09:07:21;;;;;;;;;3.75;2.00;;;;;21.95;36.08;101139.88;4978996;28;45698;-46
2022/06/01 09:10:13;;;;;;;;;3.00;3.00;;;;;21.96;36.04;101136.28;4978684;28;45368;-48
2022/06/01 09:12:40;;;;;;;;;1.25;1.25;;;;;21.96;36.19;101136.28;4978830;28;45397;-43
2022/06/01 09:15:21;;;;;;;;;2.00;2.00;;;;;21.97;36.13;101138.84;4978307;28;46194;-46
2022/06/01 09:17:47;;;;;;;;;4.00;1.75;;;;;21.97;35.77;101138.84;4978371;28;45337;-46
2022/06/01 09:23:09;;;;;;;;;5.50;2.00;;;;;21.98;36.30;101137.91;4977451;28;45373;-44
2022/06/01 09:25:35;;;;;;;;;2.75;2.75;;;;;21.99;35.95;101134.31;4977945;28;46255;-45
2022/06/01 09:28:37;;;;;;;;;2.25;2.25;;;;;21.95;36.16;101131.94;4978080;28;45392;-45
2022/06/01 09:31:22;;;;;;;;;3.00;3.00;;;;;22.01;36.37;101143.00;4993298;28;45392;-44
2022/06/01 09:33:48;;;;;;;;;3.00;3.00;;;;;22.03;36.35;101145.56;4977940;28;45420;-43
2022/06/01 09:36:31;;;;;;;;;2.25;2.25;;;;;22.02;36.26;101144.72;4978168;28;46086;-48
2022/06/01 09:39:01;;;;;;;;;2.00;2.00;;;;;22.02;36.27;101142.06;4978377;28;45748;-43
2022/06/01 09:41:31;;;;;;;;;3.00;2.00;;;;;22.04;36.04;101147.25;4978427;28;45171;-46
2022/06/01 09:43:59;;;;;;;;;2.00;2.00;;;;;22.07;36.52;101147.09;4978552;28;45530;-47
2022/06/01 09:46:48;;;;;;;;;2.50;2.00;;;;;22.08;36.20;101151.44;4978079;28;46717;-47
2022/06/01 09:49:32;;;;;;;;;2.00;2.00;;;;;22.09;36.27;101145.22;4977850;28;45769;-44
2022/06/01 09:52:07;;;;;;;;;2.00;2.00;;;;;22.10;36.33;101146.94;4978190;28;45285;-44
2022/06/01 09:54:38;;;;;;;;;3.00;2.00;;;;;22.09;36.08;101140.78;4977995;28;45297;-50
2022/06/01 09:57:18;;;;;;;;;3.00;3.00;;;;;22.09;36.25;101134.66;4977796;28;45968;-48
2022/06/01 10:08:14;;;;;;;;;2.00;2.00;;;;;22.10;36.23;101131.09;4977669;28;45427;-43
2022/06/01 10:10:54;;;;;;;;;2.00;2.00;;;;;22.11;36.25;101127.47;4977560;28;45473;-43
2022/06/01 10:13:28;;;;;;;;;2.00;2.00;;;;;22.12;36.11;101136.25;4977747;28;45421;-47
2022/06/01 10:15:58;;;;;;;;;1.25;1.25;;;;;22.12;36.12;101138.91;4976584;28;45290;-44
2022/06/01 10:18:30;;;;;;;;;3.50;3.00;;;;;22.12;35.94;101130.97;4977323;28;46960;-46
2022/06/01 10:21:15;;;;;;;;;3.25;3.00;;;;;22.11;36.05;101131.91;4977535;28;45775;-48
2022/06/01 10:24:07;;;;;;;;;2.00;2.00;;;;;22.12;35.86;101133.63;4977610;28;45340;-49
2022/06/01 10:26:39;;;;;;;;;1.75;1.75;;;;;22.11;36.30;101131.91;4976495;28;45207;-49
2022/06/01 10:29:13;;;;;;;;;1.75;1.75;;;;;22.13;36.13;101136.16;4976091;28;48399;-46
2022/06/01 10:31:47;;;;;;;;;3.00;3.00;;;;;22.13;35.95;101124.78;4977244;28;45337;-48
2022/06/01 10:34:23;;;;;;;;;2.75;2.75;;;;;22.11;36.06;101134.56;4976295;28;45468;-46
2022/06/01 10:36:59;;;;;;;;;2.00;2.00;;;;;22.11;36.22;101119.56;4977554;28;45469;-48
2022/06/01 10:39:49;;;;;;;;;2.00;2.00;;;;;22.12;35.91;101125.72;4977200;28;45524;-45
2022/06/01 10:42:24;;;;;;;;;4.25;2.00;;;;;22.12;35.97;101129.19;4977274;28;45202;-47
2022/06/01 10:45:04;;;;;;;;;2.00;2.00;;;;;22.11;36.24;101127.47;4976056;28;45246;-50
2022/06/01 10:47:33;;;;;;;;;3.00;3.00;;;;;22.10;35.88;101133.72;4977353;28;45492;-49
2022/06/01 10:50:07;;;;;;;;;3.00;3.00;;;;;22.09;35.68;101124.09;4977180;28;47068;-48
2022/06/01 10:52:48;;;;;;;;;3.50;2.00;;;;;22.08;35.80;101127.69;4977038;28;45727;-45
2022/06/01 10:55:24;;;;;;;;;1.75;1.50;;;;;22.03;35.82;101119.16;4977203;28;45395;-47
2022/06/01 10:57:50;;;;;;;;;3.00;2.75;;;;;22.06;35.62;101124.28;4977202;28;45333;-50
2022/06/01 11:00:24;;;;;;;;;2.50;2.50;;;;;22.08;35.74;101114.47;4976922;28;45451;-45
2022/06/01 11:03:08;;;;;;;;;3.75;2.00;;;;;22.09;35.90;101103.00;4976645;28;45337;-48
2022/06/01 11:05:36;;;;;;;;;2.00;2.00;;;;;22.08;35.50;101106.56;4974822;28;45494;-47
2022/06/01 11:08:26;;;;;;;;;2.00;2.00;;;;;22.05;35.95;101112.84;4977112;28;45656;-46
2022/06/01 11:11:11;;;;;;;;;2.25;2.25;;;;;22.04;35.87;101107.66;4976327;28;46236;-47
2022/06/01 11:14:11;;;;;;;;;2.25;2.00;;;;;22.05;35.51;101112.00;4976393;28;45797;-46
2022/06/01 11:17:01;;;;;;;;;1.50;1.50;;;;;22.03;35.96;101100.69;4976512;28;46073;-48
2022/06/01 11:20:11;;;;;;;;;4.00;2.00;;;;;22.03;35.55;101101.56;4975611;28;45528;-46
2022/06/01 11:22:46;;;;;;;;;3.00;2.50;;;;;22.04;35.96;101091.81;4965916;28;47190;-48
2022/06/01 11:25:32;;;;;;;;;2.75;2.00;;;;;22.03;35.56;101087.47;4976472;28;45790;-46
2022/06/01 11:28:03;;;;;;;;;4.00;2.50;;;;;22.03;35.94;101096.28;4976622;28;45606;-47
2022/06/01 11:30:37;;;;;;;;;2.00;2.00;;;;;22.03;35.84;101095.41;4976985;28;45408;-47
2022/06/01 11:33:24;;;;;;;;;1.75;1.75;;;;;22.03;35.73;101098.03;4975780;28;46651;-43
2022/06/01 11:36:04;;;;;;;;;2.00;2.00;;;;;22.03;35.63;101093.63;4976532;28;45718;-47
2022/06/01 11:38:37;;;;;;;;;3.00;3.00;;;;;22.03;35.63;101092.75;4976606;28;45369;-45
2022/06/01 11:41:17;;;;;;;;;5.50;3.00;;;;;22.02;35.74;101083.16;4976530;28;45501;-46
2022/06/01 11:43:49;;;;;;;;;2.00;2.00;;;;;22.02;35.81;101091.94;4976314;28;45377;-46
2022/06/01 11:46:22;;;;;;;;;3.75;3.00;;;;;22.02;35.88;101088.41;4976318;28;45868;-48
2022/06/01 11:48:55;;;;;;;;;2.25;2.00;;;;;22.01;35.95;101095.50;4976349;28;45417;-44
2022/06/01 11:51:44;;;;;;;;;3.50;2.00;;;;;22.03;35.58;101076.94;4976735;28;45274;-47
2022/06/01 11:54:17;;;;;;;;;3.00;3.00;;;;;22.03;35.83;101084.84;4976227;28;46224;-48
2022/06/01 11:57:01;;;;;;;;;3.00;3.00;;;;;22.02;35.70;101080.50;4977678;28;45309;-46
2022/06/01 11:59:32;;;;;;;;;2.00;2.00;;;;;22.02;35.94;101077.88;4979655;28;45303;-47
2022/06/01 12:01:59;;;;;;;;;3.25;3.25;;;;;22.03;35.67;101076.94;4977595;28;45555;-48
2022/06/01 12:04:51;;;;;;;;;1.50;1.50;;;;;22.01;35.62;101079.66;4978458;28;46031;-46
2022/06/01 12:07:32;;;;;;;;;2.00;2.00;;;;;22.02;35.44;101076.09;4978003;28;46004;-50
2022/06/01 12:10:07;;;;;;;;;2.00;2.00;;;;;22.01;35.65;101073.53;4979138;28;45260;-47